Pagrindinis puslapis
METAR-TAF:

METAR-TAF

Oro uostai :

Mitiga International Airport

Tripolis, Libija

platuma: 32-54N, ilguma: 13-17E, Aukštis: 11 m

METAR: trūkstamas

Laikas: 02:28 (00:28 UTC)

Prognozė

Ataskaita buvo paskelbta 7 valandos ir 28 minutes, ne 17:00 UTC
Prognozė galioja nuo 18 metu 18 UTC su 19 metu 18 UTC
Vėjas 2 kt nuo kintamojo kryptimis
Matomumas: 8000 m
Išsisklaidę debesys ne aukštis 2500 ft
Tikimybė 30% :
Laikinai
nuo 19 metu 00 UTC su 19 metu 06 UTC
Vėjas 10 kt iš Šiaurės
Matomumas: 3000 m
rūkana,

TAF: HLLM 181700Z 1818/1918 36010KT 8000 SCT025 BECMG1820/1822 VRB02KT PROB30 TEMPO 1900/1906 3000 BR BECMG1912/1914 35010KT

Orai ataskaitas ir orų prognozės (METAR, TAF).

turimą stotys yra geltonos ir raudonos taškus žemėlapyje.

Perkelti pele per norėdami pamatyti stoties vardą.

Tada spustelėkite, norėdami matyti oro stebėjimo ir prognozės.

Norėdami pakeisti žemėlapį: spustelėkite ant žalios mygtukų su juodo kryžiaus žemyn,; žalią mygtuką su brūkšneliu, jei norite nutolinti; arba žalių rodyklių gretimoms žemėlapius.


METAR-TAF: